Corrientes, Argentina
Current Conditions -  °F | °C
As of 6:00 PM on Monday 24 Nov 2014 (Local Time) from SARC Reporting Station
Few Clouds Few Clouds  
Wind Chill: 93°   Ceiling: Unl
Heat Index: 99°   Visibility: 6mi
Dew Point: 70°   Wind: 16mph
Humidity: 46%   Direction: 20°NNE
Pressure: 29.59"   Gusts: NA
Location:  27.49°S, 58.81°W
Report Text: SARC 242100Z 02014KT 9999 FEW027 34/21 Q1002
Loading
Personal Weather Stations






























Interactive Weather Map New forecast layout! Learn more

10-Day Weather Forecast

Advertisements
Track Severe Weather on mobile